sensor_id;sensor_type;location;lat;lon;timestamp;temperature;humidity
69543;SHT31;56762;49.494;11.768;2023-07-29T00:00:14;18.02;90.99
69543;SHT31;56762;49.494;11.768;2023-07-29T00:02:42;17.98;90.96
69543;SHT31;56762;49.494;11.768;2023-07-29T00:05:11;18.00;91.09
69543;SHT31;56762;49.494;11.768;2023-07-29T00:07:39;18.00;91.13
69543;SHT31;56762;49.494;11.768;2023-07-29T00:10:07;18.00;91.07
69543;SHT31;56762;49.494;11.768;2023-07-29T00:12:36;17.97;91.16
69543;SHT31;56762;49.494;11.768;2023-07-29T00:15:05;17.98;90.98
69543;SHT31;56762;49.494;11.768;2023-07-29T00:17:33;17.97;90.87
69543;SHT31;56762;49.494;11.768;2023-07-29T00:20:02;17.98;90.75
69543;SHT31;56762;49.494;11.768;2023-07-29T00:22:33;17.97;90.55
69543;SHT31;56762;49.494;11.768;2023-07-29T00:25:01;17.97;90.39
69543;SHT31;56762;49.494;11.768;2023-07-29T00:27:29;17.98;90.37
69543;SHT31;56762;49.494;11.768;2023-07-29T00:29:58;17.97;90.34
69543;SHT31;56762;49.494;11.768;2023-07-29T00:32:29;17.98;90.30
69543;SHT31;56762;49.494;11.768;2023-07-29T00:34:57;17.98;90.41
69543;SHT31;56762;49.494;11.768;2023-07-29T00:37:28;17.98;90.32
69543;SHT31;56762;49.494;11.768;2023-07-29T00:39:55;17.97;90.10
69543;SHT31;56762;49.494;11.768;2023-07-29T00:42:23;17.98;90.63
69543;SHT31;56762;49.494;11.768;2023-07-29T00:44:51;17.97;90.62
69543;SHT31;56762;49.494;11.768;2023-07-29T00:47:21;17.97;90.85
69543;SHT31;56762;49.494;11.768;2023-07-29T00:49:50;17.96;90.35
69543;SHT31;56762;49.494;11.768;2023-07-29T00:52:18;17.94;90.07
69543;SHT31;56762;49.494;11.768;2023-07-29T00:54:46;17.96;90.01
69543;SHT31;56762;49.494;11.768;2023-07-29T00:57:15;17.94;90.04
69543;SHT31;56762;49.494;11.768;2023-07-29T00:59:43;17.96;90.13
69543;SHT31;56762;49.494;11.768;2023-07-29T01:02:11;17.94;90.08
69543;SHT31;56762;49.494;11.768;2023-07-29T01:04:41;17.93;90.15
69543;SHT31;56762;49.494;11.768;2023-07-29T01:07:15;17.93;90.11
69543;SHT31;56762;49.494;11.768;2023-07-29T01:09:50;17.94;90.18
69543;SHT31;56762;49.494;11.768;2023-07-29T01:12:27;17.91;90.41
69543;SHT31;56762;49.494;11.768;2023-07-29T01:15:01;17.93;90.39
69543;SHT31;56762;49.494;11.768;2023-07-29T01:17:33;17.90;90.44
69543;SHT31;56762;49.494;11.768;2023-07-29T01:20:08;17.89;90.27
69543;SHT31;56762;49.494;11.768;2023-07-29T01:22:37;17.87;90.34
69543;SHT31;56762;49.494;11.768;2023-07-29T01:25:08;17.86;90.41
69543;SHT31;56762;49.494;11.768;2023-07-29T01:27:36;17.84;90.38
69543;SHT31;56762;49.494;11.768;2023-07-29T01:30:05;17.81;90.48
69543;SHT31;56762;49.494;11.768;2023-07-29T01:32:37;17.81;90.48
69543;SHT31;56762;49.494;11.768;2023-07-29T01:35:15;17.79;90.60
69543;SHT31;56762;49.494;11.768;2023-07-29T01:37:46;17.79;90.55
69543;SHT31;56762;49.494;11.768;2023-07-29T01:40:18;17.77;90.54
69543;SHT31;56762;49.494;11.768;2023-07-29T01:42:46;17.76;90.72
69543;SHT31;56762;49.494;11.768;2023-07-29T01:45:14;17.76;90.53
69543;SHT31;56762;49.494;11.768;2023-07-29T01:47:43;17.76;90.63
69543;SHT31;56762;49.494;11.768;2023-07-29T01:50:11;17.74;90.66
69543;SHT31;56762;49.494;11.768;2023-07-29T01:52:39;17.74;90.69
69543;SHT31;56762;49.494;11.768;2023-07-29T01:55:07;17.70;90.77
69543;SHT31;56762;49.494;11.768;2023-07-29T01:57:36;17.70;90.86
69543;SHT31;56762;49.494;11.768;2023-07-29T02:00:06;17.69;90.83
69543;SHT31;56762;49.494;11.768;2023-07-29T02:02:35;17.69;90.88
69543;SHT31;56762;49.494;11.768;2023-07-29T02:05:03;17.69;90.84
69543;SHT31;56762;49.494;11.768;2023-07-29T02:07:31;17.69;90.87
69543;SHT31;56762;49.494;11.768;2023-07-29T02:09:59;17.66;90.90
69543;SHT31;56762;49.494;11.768;2023-07-29T02:12:27;17.65;90.96
69543;SHT31;56762;49.494;11.768;2023-07-29T02:14:56;17.65;90.95
69543;SHT31;56762;49.494;11.768;2023-07-29T02:17:24;17.65;90.87
69543;SHT31;56762;49.494;11.768;2023-07-29T02:19:53;17.66;90.82
69543;SHT31;56762;49.494;11.768;2023-07-29T02:22:20;17.60;90.77
69543;SHT31;56762;49.494;11.768;2023-07-29T02:24:48;17.63;90.84
69543;SHT31;56762;49.494;11.768;2023-07-29T02:27:16;17.62;90.72
69543;SHT31;56762;49.494;11.768;2023-07-29T02:29:43;17.60;90.86
69543;SHT31;56762;49.494;11.768;2023-07-29T02:32:13;17.62;90.79
69543;SHT31;56762;49.494;11.768;2023-07-29T02:34:41;17.65;90.61
69543;SHT31;56762;49.494;11.768;2023-07-29T02:37:09;17.65;90.35
69543;SHT31;56762;49.494;11.768;2023-07-29T02:39:37;17.63;90.55
69543;SHT31;56762;49.494;11.768;2023-07-29T02:42:05;17.62;90.73
69543;SHT31;56762;49.494;11.768;2023-07-29T02:44:32;17.60;90.70
69543;SHT31;56762;49.494;11.768;2023-07-29T02:47:00;17.59;90.62
69543;SHT31;56762;49.494;11.768;2023-07-29T02:49:29;17.57;90.68
69543;SHT31;56762;49.494;11.768;2023-07-29T02:51:57;17.60;90.86
69543;SHT31;56762;49.494;11.768;2023-07-29T02:54:25;17.60;90.90
69543;SHT31;56762;49.494;11.768;2023-07-29T02:56:53;17.57;90.99
69543;SHT31;56762;49.494;11.768;2023-07-29T02:59:20;17.59;90.91
69543;SHT31;56762;49.494;11.768;2023-07-29T03:01:49;17.56;90.98
69543;SHT31;56762;49.494;11.768;2023-07-29T03:04:16;17.59;91.07
69543;SHT31;56762;49.494;11.768;2023-07-29T03:06:45;17.59;90.94
69543;SHT31;56762;49.494;11.768;2023-07-29T03:09:15;17.59;90.98
69543;SHT31;56762;49.494;11.768;2023-07-29T03:11:42;17.54;90.91
69543;SHT31;56762;49.494;11.768;2023-07-29T03:14:10;17.51;90.83
69543;SHT31;56762;49.494;11.768;2023-07-29T03:16:39;17.50;91.15
69543;SHT31;56762;49.494;11.768;2023-07-29T03:19:07;17.50;91.30
69543;SHT31;56762;49.494;11.768;2023-07-29T03:21:34;17.50;91.46
69543;SHT31;56762;49.494;11.768;2023-07-29T03:24:04;17.49;91.58
69543;SHT31;56762;49.494;11.768;2023-07-29T03:26:33;17.47;91.69
69543;SHT31;56762;49.494;11.768;2023-07-29T03:29:02;17.49;91.59
69543;SHT31;56762;49.494;11.768;2023-07-29T03:31:29;17.45;91.47
69543;SHT31;56762;49.494;11.768;2023-07-29T03:33:57;17.43;91.29
69543;SHT31;56762;49.494;11.768;2023-07-29T03:36:25;17.40;91.19
69543;SHT31;56762;49.494;11.768;2023-07-29T03:38:53;17.36;91.31
69543;SHT31;56762;49.494;11.768;2023-07-29T03:41:22;17.35;91.23
69543;SHT31;56762;49.494;11.768;2023-07-29T03:43:50;17.36;91.01
69543;SHT31;56762;49.494;11.768;2023-07-29T03:46:18;17.29;91.04
69543;SHT31;56762;49.494;11.768;2023-07-29T03:48:48;17.23;91.08
69543;SHT31;56762;49.494;11.768;2023-07-29T03:51:16;17.22;91.13
69543;SHT31;56762;49.494;11.768;2023-07-29T03:53:44;17.16;91.22
69543;SHT31;56762;49.494;11.768;2023-07-29T03:56:12;17.16;91.31
69543;SHT31;56762;49.494;11.768;2023-07-29T03:58:41;17.12;91.25
69543;SHT31;56762;49.494;11.768;2023-07-29T04:01:10;17.14;91.39
69543;SHT31;56762;49.494;11.768;2023-07-29T04:03:38;17.09;91.57
69543;SHT31;56762;49.494;11.768;2023-07-29T04:06:06;17.11;91.40
69543;SHT31;56762;49.494;11.768;2023-07-29T04:08:34;17.05;91.60
69543;SHT31;56762;49.494;11.768;2023-07-29T04:11:02;17.07;91.70
69543;SHT31;56762;49.494;11.768;2023-07-29T04:13:30;17.07;91.83
69543;SHT31;56762;49.494;11.768;2023-07-29T04:15:59;17.05;91.85
69543;SHT31;56762;49.494;11.768;2023-07-29T04:18:27;17.11;92.01
69543;SHT31;56762;49.494;11.768;2023-07-29T04:20:54;17.15;91.97
69543;SHT31;56762;49.494;11.768;2023-07-29T04:23:23;17.23;91.95
69543;SHT31;56762;49.494;11.768;2023-07-29T04:25:50;17.30;91.77
69543;SHT31;56762;49.494;11.768;2023-07-29T04:28:18;17.39;91.74
69543;SHT31;56762;49.494;11.768;2023-07-29T04:30:46;17.49;91.43
69543;SHT31;56762;49.494;11.768;2023-07-29T04:33:15;17.60;91.07
69543;SHT31;56762;49.494;11.768;2023-07-29T04:35:43;17.69;90.69
69543;SHT31;56762;49.494;11.768;2023-07-29T04:38:11;17.76;90.27
69543;SHT31;56762;49.494;11.768;2023-07-29T04:40:38;17.87;90.24
69543;SHT31;56762;49.494;11.768;2023-07-29T04:43:07;17.93;90.02
69543;SHT31;56762;49.494;11.768;2023-07-29T04:45:34;17.93;88.99
69543;SHT31;56762;49.494;11.768;2023-07-29T04:48:03;18.00;88.82
69543;SHT31;56762;49.494;11.768;2023-07-29T04:50:32;18.04;88.79
69543;SHT31;56762;49.494;11.768;2023-07-29T04:53:00;18.14;88.84
69543;SHT31;56762;49.494;11.768;2023-07-29T04:55:28;18.24;88.52
69543;SHT31;56762;49.494;11.768;2023-07-29T04:57:56;18.32;88.29
69543;SHT31;56762;49.494;11.768;2023-07-29T05:00:24;18.38;87.88
69543;SHT31;56762;49.494;11.768;2023-07-29T05:02:52;18.51;87.87
69543;SHT31;56762;49.494;11.768;2023-07-29T05:05:20;18.65;88.21
69543;SHT31;56762;49.494;11.768;2023-07-29T05:07:49;18.79;87.34
69543;SHT31;56762;49.494;11.768;2023-07-29T05:10:17;18.92;86.97
69543;SHT31;56762;49.494;11.768;2023-07-29T05:12:44;19.10;86.46
69543;SHT31;56762;49.494;11.768;2023-07-29T05:15:12;19.35;85.94
69543;SHT31;56762;49.494;11.768;2023-07-29T05:17:40;19.65;84.28
69543;SHT31;56762;49.494;11.768;2023-07-29T05:20:09;19.99;83.29
69543;SHT31;56762;49.494;11.768;2023-07-29T05:22:37;20.26;81.73
69543;SHT31;56762;49.494;11.768;2023-07-29T05:25:07;20.37;80.96
69543;SHT31;56762;49.494;11.768;2023-07-29T05:27:35;20.37;81.37
69543;SHT31;56762;49.494;11.768;2023-07-29T05:30:04;20.47;80.74
69543;SHT31;56762;49.494;11.768;2023-07-29T05:32:33;20.44;80.61
69543;SHT31;56762;49.494;11.768;2023-07-29T05:35:01;20.36;80.53
69543;SHT31;56762;49.494;11.768;2023-07-29T05:37:29;20.23;80.50
69543;SHT31;56762;49.494;11.768;2023-07-29T05:39:58;20.08;81.23
69543;SHT31;56762;49.494;11.768;2023-07-29T05:42:28;19.92;81.65
69543;SHT31;56762;49.494;11.768;2023-07-29T05:44:55;19.86;82.55
69543;SHT31;56762;49.494;11.768;2023-07-29T05:47:23;19.88;82.78
69543;SHT31;56762;49.494;11.768;2023-07-29T05:49:51;19.86;82.85
69543;SHT31;56762;49.494;11.768;2023-07-29T05:52:20;19.78;82.64
69543;SHT31;56762;49.494;11.768;2023-07-29T05:54:47;19.68;83.13
69543;SHT31;56762;49.494;11.768;2023-07-29T05:57:15;19.60;83.14
69543;SHT31;56762;49.494;11.768;2023-07-29T05:59:44;19.57;83.16
69543;SHT31;56762;49.494;11.768;2023-07-29T06:02:12;19.53;83.43
69543;SHT31;56762;49.494;11.768;2023-07-29T06:04:40;19.47;83.68
69543;SHT31;56762;49.494;11.768;2023-07-29T06:07:08;19.44;84.10
69543;SHT31;56762;49.494;11.768;2023-07-29T06:09:36;19.41;84.24
69543;SHT31;56762;49.494;11.768;2023-07-29T06:12:04;19.35;84.37
69543;SHT31;56762;49.494;11.768;2023-07-29T06:14:32;19.30;84.29
69543;SHT31;56762;49.494;11.768;2023-07-29T06:17:01;19.23;84.00
69543;SHT31;56762;49.494;11.768;2023-07-29T06:19:30;19.20;83.99
69543;SHT31;56762;49.494;11.768;2023-07-29T06:21:57;19.17;84.93
69543;SHT31;56762;49.494;11.768;2023-07-29T06:24:26;19.19;85.28
69543;SHT31;56762;49.494;11.768;2023-07-29T06:26:53;19.20;85.45
69543;SHT31;56762;49.494;11.768;2023-07-29T06:29:21;19.23;85.82
69543;SHT31;56762;49.494;11.768;2023-07-29T06:31:49;19.26;85.85
69543;SHT31;56762;49.494;11.768;2023-07-29T06:34:19;19.27;85.99
69543;SHT31;56762;49.494;11.768;2023-07-29T06:36:49;19.31;85.98
69543;SHT31;56762;49.494;11.768;2023-07-29T06:39:16;19.28;84.70
69543;SHT31;56762;49.494;11.768;2023-07-29T06:41:45;19.31;85.16
69543;SHT31;56762;49.494;11.768;2023-07-29T06:44:12;19.32;85.31
69543;SHT31;56762;49.494;11.768;2023-07-29T06:46:40;19.34;85.51
69543;SHT31;56762;49.494;11.768;2023-07-29T06:49:08;19.32;85.58
69543;SHT31;56762;49.494;11.768;2023-07-29T06:51:37;19.30;85.47
69543;SHT31;56762;49.494;11.768;2023-07-29T06:54:05;19.31;85.55
69543;SHT31;56762;49.494;11.768;2023-07-29T06:56:33;19.31;85.39
69543;SHT31;56762;49.494;11.768;2023-07-29T06:59:01;19.35;85.42
69543;SHT31;56762;49.494;11.768;2023-07-29T07:01:29;19.31;84.08
69543;SHT31;56762;49.494;11.768;2023-07-29T07:03:57;19.30;85.30
69543;SHT31;56762;49.494;11.768;2023-07-29T07:06:25;19.28;84.92
69543;SHT31;56762;49.494;11.768;2023-07-29T07:08:54;19.24;85.28
69543;SHT31;56762;49.494;11.768;2023-07-29T07:11:22;19.24;85.27
69543;SHT31;56762;49.494;11.768;2023-07-29T07:13:50;19.20;85.51
69543;SHT31;56762;49.494;11.768;2023-07-29T07:16:17;19.16;87.02
69543;SHT31;56762;49.494;11.768;2023-07-29T07:18:46;19.14;88.49
69543;SHT31;56762;49.494;11.768;2023-07-29T07:21:13;19.10;89.25
69543;SHT31;56762;49.494;11.768;2023-07-29T07:23:41;19.04;88.92
69543;SHT31;56762;49.494;11.768;2023-07-29T07:26:10;19.02;88.06
69543;SHT31;56762;49.494;11.768;2023-07-29T07:28:38;19.02;88.63
69543;SHT31;56762;49.494;11.768;2023-07-29T07:31:06;19.04;89.72
69543;SHT31;56762;49.494;11.768;2023-07-29T07:33:34;19.03;90.35
69543;SHT31;56762;49.494;11.768;2023-07-29T07:36:03;19.02;90.64
69543;SHT31;56762;49.494;11.768;2023-07-29T07:38:30;19.00;90.63
69543;SHT31;56762;49.494;11.768;2023-07-29T07:40:58;18.99;90.33
69543;SHT31;56762;49.494;11.768;2023-07-29T07:43:27;18.98;90.76
69543;SHT31;56762;49.494;11.768;2023-07-29T07:45:59;18.96;91.23
69543;SHT31;56762;49.494;11.768;2023-07-29T07:48:28;18.92;91.20
69543;SHT31;56762;49.494;11.768;2023-07-29T07:50:55;18.92;90.76
69543;SHT31;56762;49.494;11.768;2023-07-29T07:53:24;18.89;91.17
69543;SHT31;56762;49.494;11.768;2023-07-29T07:55:52;18.89;91.45
69543;SHT31;56762;49.494;11.768;2023-07-29T07:58:20;18.89;91.96
69543;SHT31;56762;49.494;11.768;2023-07-29T08:00:49;18.90;91.90
69543;SHT31;56762;49.494;11.768;2023-07-29T08:03:17;18.89;92.08
69543;SHT31;56762;49.494;11.768;2023-07-29T08:05:45;18.93;92.41
69543;SHT31;56762;49.494;11.768;2023-07-29T08:08:13;18.93;92.71
69543;SHT31;56762;49.494;11.768;2023-07-29T08:10:41;18.96;92.63
69543;SHT31;56762;49.494;11.768;2023-07-29T08:13:09;19.02;93.13
69543;SHT31;56762;49.494;11.768;2023-07-29T08:15:37;19.04;93.00
69543;SHT31;56762;49.494;11.768;2023-07-29T08:18:06;19.09;92.91
69543;SHT31;56762;49.494;11.768;2023-07-29T08:20:34;19.09;92.77
69543;SHT31;56762;49.494;11.768;2023-07-29T08:23:02;19.13;92.79
69543;SHT31;56762;49.494;11.768;2023-07-29T08:25:30;19.14;92.86
69543;SHT31;56762;49.494;11.768;2023-07-29T08:27:58;19.19;92.93
69543;SHT31;56762;49.494;11.768;2023-07-29T08:30:26;19.20;93.02
69543;SHT31;56762;49.494;11.768;2023-07-29T08:32:53;19.20;93.12
69543;SHT31;56762;49.494;11.768;2023-07-29T08:35:23;19.20;92.70
69543;SHT31;56762;49.494;11.768;2023-07-29T08:37:51;19.21;92.22
69543;SHT31;56762;49.494;11.768;2023-07-29T08:40:22;19.23;92.33
69543;SHT31;56762;49.494;11.768;2023-07-29T08:42:54;19.21;92.38
69543;SHT31;56762;49.494;11.768;2023-07-29T08:45:25;19.26;92.68
69543;SHT31;56762;49.494;11.768;2023-07-29T08:47:54;19.21;92.27
69543;SHT31;56762;49.494;11.768;2023-07-29T08:50:26;19.17;92.17
69543;SHT31;56762;49.494;11.768;2023-07-29T08:52:55;19.19;92.49
69543;SHT31;56762;49.494;11.768;2023-07-29T08:55:23;19.13;92.12
69543;SHT31;56762;49.494;11.768;2023-07-29T08:57:52;19.13;92.35
69543;SHT31;56762;49.494;11.768;2023-07-29T09:00:21;19.11;92.65
69543;SHT31;56762;49.494;11.768;2023-07-29T09:02:49;19.07;92.40
69543;SHT31;56762;49.494;11.768;2023-07-29T09:05:17;19.06;92.15
69543;SHT31;56762;49.494;11.768;2023-07-29T09:07:48;19.04;92.38
69543;SHT31;56762;49.494;11.768;2023-07-29T09:10:21;19.02;91.96
69543;SHT31;56762;49.494;11.768;2023-07-29T09:12:49;18.96;91.27
69543;SHT31;56762;49.494;11.768;2023-07-29T09:15:27;18.92;91.05
69543;SHT31;56762;49.494;11.768;2023-07-29T09:17:56;18.89;91.74
69543;SHT31;56762;49.494;11.768;2023-07-29T09:20:27;18.85;91.78
69543;SHT31;56762;49.494;11.768;2023-07-29T09:22:58;18.79;92.15
69543;SHT31;56762;49.494;11.768;2023-07-29T09:25:28;18.75;91.99
69543;SHT31;56762;49.494;11.768;2023-07-29T09:27:58;18.66;91.01
69543;SHT31;56762;49.494;11.768;2023-07-29T09:30:27;18.58;89.89
69543;SHT31;56762;49.494;11.768;2023-07-29T09:32:55;18.49;89.66
69543;SHT31;56762;49.494;11.768;2023-07-29T09:35:25;18.45;89.34
69543;SHT31;56762;49.494;11.768;2023-07-29T09:37:54;18.41;89.34
69543;SHT31;56762;49.494;11.768;2023-07-29T09:40:23;18.37;89.78
69543;SHT31;56762;49.494;11.768;2023-07-29T09:42:52;18.27;89.99
69543;SHT31;56762;49.494;11.768;2023-07-29T09:45:21;18.18;89.55
69543;SHT31;56762;49.494;11.768;2023-07-29T09:47:50;18.18;89.99
69543;SHT31;56762;49.494;11.768;2023-07-29T09:50:18;18.12;90.13
69543;SHT31;56762;49.494;11.768;2023-07-29T09:52:46;18.14;90.77
69543;SHT31;56762;49.494;11.768;2023-07-29T09:55:17;18.15;90.99
69543;SHT31;56762;49.494;11.768;2023-07-29T09:57:47;18.12;90.61
69543;SHT31;56762;49.494;11.768;2023-07-29T10:00:15;18.18;90.93
69543;SHT31;56762;49.494;11.768;2023-07-29T10:02:43;18.20;90.95
69543;SHT31;56762;49.494;11.768;2023-07-29T10:05:11;18.18;91.09
69543;SHT31;56762;49.494;11.768;2023-07-29T10:07:39;18.20;91.16
69543;SHT31;56762;49.494;11.768;2023-07-29T10:10:08;18.21;91.51
69543;SHT31;56762;49.494;11.768;2023-07-29T10:12:36;18.21;92.07
69543;SHT31;56762;49.494;11.768;2023-07-29T10:15:06;18.24;92.18
69543;SHT31;56762;49.494;11.768;2023-07-29T10:17:37;18.24;92.19
69543;SHT31;56762;49.494;11.768;2023-07-29T10:20:06;18.21;92.59
69543;SHT31;56762;49.494;11.768;2023-07-29T10:22:37;18.21;92.54
69543;SHT31;56762;49.494;11.768;2023-07-29T10:25:07;18.20;92.79
69543;SHT31;56762;49.494;11.768;2023-07-29T10:27:42;18.20;92.91
69543;SHT31;56762;49.494;11.768;2023-07-29T10:30:13;18.18;93.05
69543;SHT31;56762;49.494;11.768;2023-07-29T10:32:42;18.21;93.05
69543;SHT31;56762;49.494;11.768;2023-07-29T10:35:12;18.21;93.02
69543;SHT31;56762;49.494;11.768;2023-07-29T10:37:41;18.22;93.15
69543;SHT31;56762;49.494;11.768;2023-07-29T10:40:10;18.28;93.10
69543;SHT31;56762;49.494;11.768;2023-07-29T10:42:59;18.32;93.47
69543;SHT31;56762;49.494;11.768;2023-07-29T10:45:36;18.39;93.73
69543;SHT31;56762;49.494;11.768;2023-07-29T10:48:06;18.45;93.87
69543;SHT31;56762;49.494;11.768;2023-07-29T10:50:35;18.58;93.90
69543;SHT31;56762;49.494;11.768;2023-07-29T10:53:02;18.68;94.42
69543;SHT31;56762;49.494;11.768;2023-07-29T10:55:32;18.82;94.23
69543;SHT31;56762;49.494;11.768;2023-07-29T10:58:09;18.95;95.11
69543;SHT31;56762;49.494;11.768;2023-07-29T11:00:41;19.06;94.33
69543;SHT31;56762;49.494;11.768;2023-07-29T11:03:09;19.13;94.44
69543;SHT31;56762;49.494;11.768;2023-07-29T11:05:45;19.19;94.39
69543;SHT31;56762;49.494;11.768;2023-07-29T11:08:21;19.26;93.69
69543;SHT31;56762;49.494;11.768;2023-07-29T11:11:01;19.26;93.93
69543;SHT31;56762;49.494;11.768;2023-07-29T11:13:29;19.31;93.81
69543;SHT31;56762;49.494;11.768;2023-07-29T11:15:59;19.37;93.74
69543;SHT31;56762;49.494;11.768;2023-07-29T11:18:29;19.48;93.93
69543;SHT31;56762;49.494;11.768;2023-07-29T11:20:57;19.60;94.27
69543;SHT31;56762;49.494;11.768;2023-07-29T11:23:30;19.69;94.59
69543;SHT31;56762;49.494;11.768;2023-07-29T11:25:59;19.75;94.43
69543;SHT31;56762;49.494;11.768;2023-07-29T11:28:27;19.78;94.48
69543;SHT31;56762;49.494;11.768;2023-07-29T11:30:56;19.85;94.26
69543;SHT31;56762;49.494;11.768;2023-07-29T11:33:27;19.89;93.79
69543;SHT31;56762;49.494;11.768;2023-07-29T11:35:55;19.93;92.66
69543;SHT31;56762;49.494;11.768;2023-07-29T11:38:24;19.96;92.56
69543;SHT31;56762;49.494;11.768;2023-07-29T11:40:56;19.93;92.16
69543;SHT31;56762;49.494;11.768;2023-07-29T11:43:27;19.92;92.44
69543;SHT31;56762;49.494;11.768;2023-07-29T11:45:55;19.95;92.32
69543;SHT31;56762;49.494;11.768;2023-07-29T11:48:32;19.93;91.17
69543;SHT31;56762;49.494;11.768;2023-07-29T11:51:00;19.96;91.52
69543;SHT31;56762;49.494;11.768;2023-07-29T11:53:30;19.98;91.20
69543;SHT31;56762;49.494;11.768;2023-07-29T11:55:58;20.02;91.52
69543;SHT31;56762;49.494;11.768;2023-07-29T11:58:27;20.05;91.01
69543;SHT31;56762;49.494;11.768;2023-07-29T12:00:55;20.10;91.11
69543;SHT31;56762;49.494;11.768;2023-07-29T12:03:23;20.12;90.67
69543;SHT31;56762;49.494;11.768;2023-07-29T12:05:54;20.15;89.07
69543;SHT31;56762;49.494;11.768;2023-07-29T12:08:22;20.18;89.46
69543;SHT31;56762;49.494;11.768;2023-07-29T12:10:50;20.20;89.27
69543;SHT31;56762;49.494;11.768;2023-07-29T12:13:18;20.26;89.65
69543;SHT31;56762;49.494;11.768;2023-07-29T12:15:46;20.29;89.07
69543;SHT31;56762;49.494;11.768;2023-07-29T12:18:14;20.32;88.81
69543;SHT31;56762;49.494;11.768;2023-07-29T12:20:43;20.33;89.32
69543;SHT31;56762;49.494;11.768;2023-07-29T12:23:12;20.32;89.17
69543;SHT31;56762;49.494;11.768;2023-07-29T12:25:43;20.33;89.45
69543;SHT31;56762;49.494;11.768;2023-07-29T12:28:11;20.36;88.88
69543;SHT31;56762;49.494;11.768;2023-07-29T12:30:41;20.37;88.77
69543;SHT31;56762;49.494;11.768;2023-07-29T12:35:55;20.33;89.08
69543;SHT31;56762;49.494;11.768;2023-07-29T12:38:27;20.33;89.16
69543;SHT31;56762;49.494;11.768;2023-07-29T12:40:54;20.34;89.08
69543;SHT31;56762;49.494;11.768;2023-07-29T12:43:23;20.34;88.80
69543;SHT31;56762;49.494;11.768;2023-07-29T12:45:52;20.36;89.39
69543;SHT31;56762;49.494;11.768;2023-07-29T12:48:20;20.39;89.49
69543;SHT31;56762;49.494;11.768;2023-07-29T12:50:50;20.39;89.23
69543;SHT31;56762;49.494;11.768;2023-07-29T12:53:19;20.37;89.28
69543;SHT31;56762;49.494;11.768;2023-07-29T12:55:48;20.36;88.90
69543;SHT31;56762;49.494;11.768;2023-07-29T12:58:16;20.32;88.92
69543;SHT31;56762;49.494;11.768;2023-07-29T13:00:44;20.30;89.14
69543;SHT31;56762;49.494;11.768;2023-07-29T13:03:12;20.32;89.53
69543;SHT31;56762;49.494;11.768;2023-07-29T13:05:40;20.33;89.63
69543;SHT31;56762;49.494;11.768;2023-07-29T13:08:09;20.33;89.80
69543;SHT31;56762;49.494;11.768;2023-07-29T13:10:37;20.36;89.09
69543;SHT31;56762;49.494;11.768;2023-07-29T13:13:07;20.37;87.92
69543;SHT31;56762;49.494;11.768;2023-07-29T13:15:36;20.39;87.01
69543;SHT31;56762;49.494;11.768;2023-07-29T13:18:04;20.43;86.37
69543;SHT31;56762;49.494;11.768;2023-07-29T13:20:32;20.41;86.37
69543;SHT31;56762;49.494;11.768;2023-07-29T13:23:00;20.41;86.12
69543;SHT31;56762;49.494;11.768;2023-07-29T13:25:28;20.43;86.59
69543;SHT31;56762;49.494;11.768;2023-07-29T13:27:56;20.44;86.05
69543;SHT31;56762;49.494;11.768;2023-07-29T13:30:25;20.50;84.90
69543;SHT31;56762;49.494;11.768;2023-07-29T13:32:53;20.53;84.37
69543;SHT31;56762;49.494;11.768;2023-07-29T13:35:21;20.57;82.86
69543;SHT31;56762;49.494;11.768;2023-07-29T13:37:49;20.61;82.38
69543;SHT31;56762;49.494;11.768;2023-07-29T13:40:16;20.69;82.37
69543;SHT31;56762;49.494;11.768;2023-07-29T13:42:44;20.70;82.29
69543;SHT31;56762;49.494;11.768;2023-07-29T13:45:12;20.71;83.21
69543;SHT31;56762;49.494;11.768;2023-07-29T13:47:41;20.73;84.68
69543;SHT31;56762;49.494;11.768;2023-07-29T13:50:09;20.77;84.48
69543;SHT31;56762;49.494;11.768;2023-07-29T13:52:38;20.83;84.02
69543;SHT31;56762;49.494;11.768;2023-07-29T13:55:06;20.87;84.06
69543;SHT31;56762;49.494;11.768;2023-07-29T13:57:34;20.87;83.17
69543;SHT31;56762;49.494;11.768;2023-07-29T14:00:03;20.91;83.90
69543;SHT31;56762;49.494;11.768;2023-07-29T14:02:32;20.90;83.85
69543;SHT31;56762;49.494;11.768;2023-07-29T14:05:01;20.88;82.98
69543;SHT31;56762;49.494;11.768;2023-07-29T14:07:29;20.90;82.50
69543;SHT31;56762;49.494;11.768;2023-07-29T14:09:57;20.94;81.73
69543;SHT31;56762;49.494;11.768;2023-07-29T14:12:27;20.91;81.92
69543;SHT31;56762;49.494;11.768;2023-07-29T14:14:55;20.88;81.13
69543;SHT31;56762;49.494;11.768;2023-07-29T14:17:23;20.90;81.37
69543;SHT31;56762;49.494;11.768;2023-07-29T14:19:51;20.92;82.28
69543;SHT31;56762;49.494;11.768;2023-07-29T14:22:20;20.95;81.50
69543;SHT31;56762;49.494;11.768;2023-07-29T14:24:48;20.95;81.24
69543;SHT31;56762;49.494;11.768;2023-07-29T14:27:16;20.91;80.53
69543;SHT31;56762;49.494;11.768;2023-07-29T14:29:43;20.95;80.42
69543;SHT31;56762;49.494;11.768;2023-07-29T14:32:11;21.00;80.35
69543;SHT31;56762;49.494;11.768;2023-07-29T14:34:39;21.02;80.59
69543;SHT31;56762;49.494;11.768;2023-07-29T14:37:07;21.05;79.58
69543;SHT31;56762;49.494;11.768;2023-07-29T14:39:36;21.07;79.22
69543;SHT31;56762;49.494;11.768;2023-07-29T14:42:04;21.05;79.30
69543;SHT31;56762;49.494;11.768;2023-07-29T14:44:33;21.05;78.86
69543;SHT31;56762;49.494;11.768;2023-07-29T14:47:01;21.04;79.14
69543;SHT31;56762;49.494;11.768;2023-07-29T14:49:29;21.01;79.17
69543;SHT31;56762;49.494;11.768;2023-07-29T14:51:57;20.97;79.32
69543;SHT31;56762;49.494;11.768;2023-07-29T14:54:24;21.00;79.48
69543;SHT31;56762;49.494;11.768;2023-07-29T14:56:54;20.98;79.55
69543;SHT31;56762;49.494;11.768;2023-07-29T14:59:22;21.01;79.87
69543;SHT31;56762;49.494;11.768;2023-07-29T15:01:49;21.02;79.90
69543;SHT31;56762;49.494;11.768;2023-07-29T15:04:18;21.07;80.29
69543;SHT31;56762;49.494;11.768;2023-07-29T15:06:45;21.10;80.51
69543;SHT31;56762;49.494;11.768;2023-07-29T15:09:13;21.11;80.90
69543;SHT31;56762;49.494;11.768;2023-07-29T15:11:41;21.12;81.12
69543;SHT31;56762;49.494;11.768;2023-07-29T15:14:10;21.15;80.99
69543;SHT31;56762;49.494;11.768;2023-07-29T15:16:38;21.12;81.10
69543;SHT31;56762;49.494;11.768;2023-07-29T15:19:07;21.12;80.67
69543;SHT31;56762;49.494;11.768;2023-07-29T15:21:34;21.08;79.50
69543;SHT31;56762;49.494;11.768;2023-07-29T15:24:02;21.14;80.20
69543;SHT31;56762;49.494;11.768;2023-07-29T15:26:30;21.18;80.52